Time;durP1;ratioP1;P1;durP2;ratioP2;P2;SDS_P1;SDS_P2;PMS_P1;PMS_P2;Temp;Humidity;BMP_temperature;BMP_pressure;BME280_temperature;BME280_humidity;BME280_pressure;Samples;Min_cycle;Max_cycle;Signal;HPM_P1;HPM_P2
2022/07/10 00:00:17;;;;;;;7.85;3.70;;;13.00;99.90;;;;;;2113171;28;20023;-65
2022/07/10 00:01:18;;;;;;;8.90;3.85;;;12.90;99.90;;;;;;2113272;28;20095;-65
2022/07/10 00:02:19;;;;;;;7.85;4.30;;;12.90;99.90;;;;;;2113138;28;20493;-65
2022/07/10 00:03:20;;;;;;;12.75;4.18;;;12.90;99.90;;;;;;2113200;28;20023;-65
2022/07/10 00:04:20;;;;;;;9.68;3.92;;;12.80;99.90;;;;;;2112550;28;20366;-65
2022/07/10 00:05:22;;;;;;;7.65;3.70;;;12.70;99.90;;;;;;2112443;28;20493;-66
2022/07/10 00:06:22;;;;;;;9.25;3.78;;;12.70;99.90;;;;;;2113139;28;20024;-66
2022/07/10 00:07:23;;;;;;;10.88;3.75;;;12.70;99.90;;;;;;2112883;28;20111;-65
2022/07/10 00:08:24;;;;;;;9.70;3.65;;;12.70;99.90;;;;;;2112706;28;20031;-65
2022/07/10 00:09:25;;;;;;;12.43;3.80;;;12.60;99.90;;;;;;2112488;28;20039;-66
2022/07/10 00:10:26;;;;;;;8.15;3.92;;;12.60;99.90;;;;;;2112288;28;20028;-65
2022/07/10 00:11:27;;;;;;;9.00;4.30;;;12.70;99.90;;;;;;2112547;28;20023;-65
2022/07/10 00:12:27;;;;;;;9.98;3.80;;;12.60;99.90;;;;;;2112540;28;20036;-66
2022/07/10 00:13:28;;;;;;;9.52;3.70;;;12.60;99.90;;;;;;2112423;28;20147;-65
2022/07/10 00:14:29;;;;;;;7.05;3.38;;;12.60;99.90;;;;;;2113066;28;20027;-66
2022/07/10 00:15:31;;;;;;;7.90;3.50;;;12.60;99.90;;;;;;2113438;28;20027;-64
2022/07/10 00:16:32;;;;;;;6.13;3.30;;;12.70;99.90;;;;;;2112718;28;20035;-66
2022/07/10 00:17:33;;;;;;;8.80;3.30;;;12.70;99.90;;;;;;2112588;28;20409;-64
2022/07/10 00:18:34;;;;;;;9.70;3.40;;;12.80;99.90;;;;;;2113288;28;20039;-65
2022/07/10 00:19:35;;;;;;;6.25;3.15;;;12.80;99.90;;;;;;2112885;28;20119;-66
2022/07/10 00:20:36;;;;;;;8.40;3.10;;;12.80;99.90;;;;;;2113043;28;20046;-65
2022/07/10 00:21:36;;;;;;;7.43;3.05;;;12.80;99.90;;;;;;2113408;28;20023;-65
2022/07/10 00:22:38;;;;;;;7.13;3.20;;;12.80;99.90;;;;;;2113743;27;20023;-65
2022/07/10 00:23:38;;;;;;;13.73;3.72;;;12.70;99.90;;;;;;2113368;28;20016;-65
2022/07/10 00:24:39;;;;;;;6.30;3.25;;;12.70;99.90;;;;;;2113134;28;20030;-65
2022/07/10 00:25:40;;;;;;;8.48;3.15;;;12.70;99.90;;;;;;2112535;28;20027;-65
2022/07/10 00:26:40;;;;;;;11.73;3.47;;;12.70;99.90;;;;;;2112587;28;20138;-65
2022/07/10 00:27:42;;;;;;;6.15;3.20;;;12.70;99.90;;;;;;2113149;28;20027;-66
2022/07/10 00:28:42;;;;;;;10.45;3.50;;;12.60;99.90;;;;;;2113147;28;20451;-65
2022/07/10 00:29:43;;;;;;;7.13;3.20;;;12.70;99.90;;;;;;2113041;28;20035;-66
2022/07/10 00:30:44;;;;;;;8.35;3.30;;;12.70;99.90;;;;;;2112970;28;20374;-64
2022/07/10 00:31:45;;;;;;;9.10;3.50;;;12.70;99.90;;;;;;2104368;28;20090;-65
2022/07/10 00:32:46;;;;;;;7.30;3.55;;;12.60;99.90;;;;;;2087704;28;20510;-65
2022/07/10 00:33:47;;;;;;;6.10;3.20;;;12.60;99.90;;;;;;2095840;28;20067;-66
2022/07/10 00:34:48;;;;;;;8.60;3.45;;;12.70;99.90;;;;;;2112423;28;20043;-65
2022/07/10 00:35:49;;;;;;;11.38;3.35;;;12.70;99.90;;;;;;2113186;28;20032;-65
2022/07/10 00:36:49;;;;;;;11.85;3.33;;;12.70;99.90;;;;;;2112656;28;20058;-64
2022/07/10 00:37:50;;;;;;;11.65;3.70;;;12.60;99.90;;;;;;2112648;28;20501;-66
2022/07/10 00:38:51;;;;;;;10.20;3.47;;;12.60;99.90;;;;;;2113001;28;20344;-66
2022/07/10 00:39:54;;;;;;;11.43;3.30;;;12.60;99.90;;;;;;2112813;28;20031;-65
2022/07/10 00:40:55;;;;;;;6.88;3.30;;;12.60;99.90;;;;;;2113018;28;20031;-67
2022/07/10 00:42:09;;;;;;;7.18;3.08;;;12.70;99.90;;;;;;2112955;28;20493;-65
2022/07/10 00:43:09;;;;;;;6.15;3.00;;;12.70;99.90;;;;;;2113168;28;20027;-65
2022/07/10 00:44:11;;;;;;;7.47;3.15;;;12.80;99.90;;;;;;2112508;28;20671;-66
2022/07/10 00:45:12;;;;;;;8.18;3.15;;;12.80;99.90;;;;;;2103968;28;20405;-64
2022/07/10 00:46:15;;;;;;;6.38;3.13;;;12.70;99.90;;;;;;2112493;28;20599;-65
2022/07/10 00:47:19;;;;;;;13.55;3.15;;;12.70;99.90;;;;;;2112895;28;20020;-65
2022/07/10 00:48:19;;;;;;;7.43;2.80;;;12.70;99.90;;;;;;2112907;28;20011;-64
2022/07/10 00:49:20;;;;;;;6.35;2.95;;;12.70;99.90;;;;;;2112970;28;20034;-64
2022/07/10 00:50:21;;;;;;;9.23;3.35;;;12.80;99.90;;;;;;2112445;28;20038;-66
2022/07/10 00:51:25;;;;;;;7.00;2.90;;;12.90;99.90;;;;;;2112969;28;20077;-65
2022/07/10 00:52:26;;;;;;;8.98;3.08;;;13.00;99.90;;;;;;2113069;28;20023;-64
2022/07/10 00:53:27;;;;;;;5.40;2.80;;;13.00;99.90;;;;;;2112361;28;20174;-63
2022/07/10 00:54:30;;;;;;;7.63;3.25;;;13.10;99.90;;;;;;2112310;28;20019;-65
2022/07/10 00:55:32;;;;;;;7.72;2.85;;;13.20;99.90;;;;;;2113044;28;20070;-65
2022/07/10 00:56:33;;;;;;;6.43;2.70;;;13.30;99.90;;;;;;2112866;28;20038;-64
2022/07/10 00:57:36;;;;;;;5.75;2.22;;;13.40;99.90;;;;;;2112795;28;20077;-64
2022/07/10 00:58:36;;;;;;;5.30;2.38;;;13.50;99.90;;;;;;2113069;28;20393;-65
2022/07/10 00:59:37;;;;;;;7.55;2.30;;;13.50;99.90;;;;;;2113910;28;20038;-66
2022/07/10 01:00:39;;;;;;;5.68;2.20;;;13.60;99.90;;;;;;2118154;28;20117;-64
2022/07/10 01:01:40;;;;;;;7.18;2.20;;;13.70;99.90;;;;;;2119358;28;20513;-67
2022/07/10 01:02:44;;;;;;;7.88;2.30;;;13.80;99.90;;;;;;2119816;28;20050;-64
2022/07/10 01:03:45;;;;;;;6.90;2.20;;;13.90;99.90;;;;;;2119732;28;20100;-65
2022/07/10 01:04:49;;;;;;;4.82;1.98;;;13.90;99.90;;;;;;2119179;28;20393;-65
2022/07/10 01:05:49;;;;;;;5.95;2.03;;;14.00;99.90;;;;;;2116297;28;20470;-64
2022/07/10 01:06:50;;;;;;;9.75;2.03;;;14.10;99.90;;;;;;2115506;28;20076;-67
2022/07/10 01:07:51;;;;;;;5.50;2.20;;;14.10;99.90;;;;;;2116568;28;20035;-66
2022/07/10 01:08:51;;;;;;;6.18;1.90;;;14.10;99.90;;;;;;2117828;28;20063;-65
2022/07/10 01:09:52;;;;;;;4.45;2.00;;;14.10;99.90;;;;;;2117765;28;20102;-66
2022/07/10 01:10:53;;;;;;;5.90;1.88;;;14.10;99.90;;;;;;2116353;28;20038;-65
2022/07/10 01:11:54;;;;;;;4.90;1.85;;;14.20;99.90;;;;;;2109033;28;20358;-65
2022/07/10 01:12:58;;;;;;;4.47;1.63;;;14.20;99.90;;;;;;2113361;28;20107;-66
2022/07/10 01:13:59;;;;;;;3.30;1.65;;;14.30;99.90;;;;;;2112802;28;20069;-66
2022/07/10 01:15:00;;;;;;;3.97;1.90;;;14.30;99.90;;;;;;2112881;28;20531;-65
2022/07/10 01:16:01;;;;;;;7.15;1.80;;;14.40;99.90;;;;;;2113541;28;20027;-65
2022/07/10 01:17:05;;;;;;;5.38;1.80;;;14.50;99.90;;;;;;2113510;28;20028;-65
2022/07/10 01:18:07;;;;;;;7.53;2.00;;;14.50;99.90;;;;;;2112666;28;20031;-65
2022/07/10 01:19:08;;;;;;;6.05;1.80;;;14.50;99.90;;;;;;2111798;28;20032;-66
2022/07/10 01:20:09;;;;;;;5.70;1.67;;;14.60;99.90;;;;;;2112198;28;20115;-65
2022/07/10 01:21:31;;;;;;;9.50;1.98;;;14.60;99.90;;;;;;2112750;28;20023;-65
2022/07/10 01:22:31;;;;;;;6.57;1.90;;;14.60;99.90;;;;;;2113441;28;20061;-66
2022/07/10 01:23:32;;;;;;;6.13;1.70;;;14.60;99.90;;;;;;2112810;28;20100;-66
2022/07/10 01:24:33;;;;;;;5.95;1.77;;;14.60;99.90;;;;;;2112742;28;20057;-66
2022/07/10 01:25:33;;;;;;;5.82;1.88;;;14.70;99.90;;;;;;2113745;28;20397;-66
2022/07/10 01:26:41;;;;;;;5.32;1.52;;;14.70;99.90;;;;;;2113426;28;20740;-66
2022/07/10 01:27:43;;;;;;;5.85;1.70;;;14.70;99.90;;;;;;2104271;28;20112;-66
2022/07/10 01:28:44;;;;;;;4.82;1.60;;;14.70;99.90;;;;;;2095965;28;20083;-66
2022/07/10 01:29:46;;;;;;;6.15;1.77;;;14.70;99.90;;;;;;2103973;28;20378;-65
2022/07/10 01:30:48;;;;;;;4.75;1.70;;;14.70;99.90;;;;;;2112167;28;20038;-66
2022/07/10 01:31:48;;;;;;;6.38;1.60;;;14.70;99.90;;;;;;2103738;28;20248;-66
2022/07/10 01:32:49;;;;;;;6.55;1.98;;;14.70;99.90;;;;;;2103689;28;20028;-65
2022/07/10 01:33:50;;;;;;;5.80;1.60;;;14.80;99.90;;;;;;2111945;28;20027;-66
2022/07/10 01:34:51;;;;;;;3.63;1.40;;;14.80;99.90;;;;;;2112742;28;20330;-66
2022/07/10 01:35:51;;;;;;;3.97;1.50;;;14.80;99.90;;;;;;2111809;28;20562;-66
2022/07/10 01:36:53;;;;;;;4.22;1.60;;;14.80;99.90;;;;;;2112135;28;20046;-67
2022/07/10 01:37:53;;;;;;;6.30;2.10;;;14.80;99.90;;;;;;2111889;28;20028;-66
2022/07/10 01:38:55;;;;;;;4.38;1.65;;;14.80;99.90;;;;;;2111916;28;20139;-66
2022/07/10 01:39:56;;;;;;;5.90;1.60;;;14.80;99.90;;;;;;2111856;28;20032;-66
2022/07/10 01:40:56;;;;;;;5.50;1.80;;;14.80;99.90;;;;;;2111984;28;20441;-66
2022/07/10 01:41:57;;;;;;;4.28;1.55;;;14.80;99.90;;;;;;2112754;28;20020;-66
2022/07/10 01:43:01;;;;;;;5.32;1.65;;;14.80;99.90;;;;;;2112193;28;20526;-65
2022/07/10 01:44:02;;;;;;;6.50;1.90;;;14.80;99.90;;;;;;2104437;28;20035;-66
2022/07/10 01:45:03;;;;;;;5.07;1.63;;;14.80;99.90;;;;;;2112215;28;20039;-65
2022/07/10 01:46:04;;;;;;;6.47;2.13;;;14.80;99.90;;;;;;2112057;28;20020;-66
2022/07/10 01:47:05;;;;;;;4.28;1.90;;;14.80;99.90;;;;;;2112314;28;20426;-65
2022/07/10 01:48:05;;;;;;;5.03;1.60;;;14.80;99.90;;;;;;2103623;28;20024;-65
2022/07/10 01:49:06;;;;;;;4.10;1.80;;;14.80;99.90;;;;;;2111734;28;20385;-65
2022/07/10 01:50:07;;;;;;;5.32;1.80;;;14.80;99.90;;;;;;2111756;28;20119;-65
2022/07/10 01:51:10;;;;;;;8.48;2.10;;;14.80;99.90;;;;;;2111900;28;20046;-65
2022/07/10 01:52:11;;;;;;;4.90;1.98;;;14.80;99.90;;;;;;2112708;28;20052;-66
2022/07/10 01:53:12;;;;;;;6.43;2.00;;;14.80;99.90;;;;;;2112795;28;20036;-64
2022/07/10 01:54:12;;;;;;;4.85;1.98;;;14.80;99.90;;;;;;2112023;28;20036;-65
2022/07/10 01:55:13;;;;;;;6.03;2.88;;;14.80;99.90;;;;;;2112222;28;20280;-66
2022/07/10 01:56:15;;;;;;;6.57;2.72;;;14.80;99.90;;;;;;2112762;28;20051;-64
2022/07/10 01:57:17;;;;;;;5.65;2.72;;;14.80;99.90;;;;;;2112581;28;20031;-65
2022/07/10 01:58:18;;;;;;;5.47;2.63;;;14.80;99.90;;;;;;2112601;28;20103;-65
2022/07/10 01:59:18;;;;;;;8.20;2.70;;;14.90;99.90;;;;;;2112865;28;20394;-66
2022/07/10 02:00:19;;;;;;;4.88;2.50;;;14.90;99.90;;;;;;2112670;28;20530;-65
2022/07/10 02:01:20;;;;;;;4.50;2.20;;;14.80;99.90;;;;;;2111948;28;20024;-65
2022/07/10 02:02:21;;;;;;;4.78;2.55;;;14.90;99.90;;;;;;2112393;28;20038;-65
2022/07/10 02:04:41;;;;;;;6.32;1.95;;;14.90;99.90;;;;;;2112901;28;20070;-65
2022/07/10 02:05:42;;;;;;;3.35;1.60;;;14.90;99.90;;;;;;2112577;28;20031;-64
2022/07/10 02:06:42;;;;;;;4.47;1.55;;;14.90;99.90;;;;;;2112602;28;20032;-66
2022/07/10 02:07:43;;;;;;;5.10;1.50;;;14.90;99.90;;;;;;2112466;28;20450;-65
2022/07/10 02:08:43;;;;;;;6.72;1.55;;;14.90;99.90;;;;;;2111806;28;20031;-65
2022/07/10 02:09:45;;;;;;;8.43;1.98;;;14.90;99.90;;;;;;2112558;28;20051;-65
2022/07/10 02:10:46;;;;;;;6.30;1.60;;;14.90;99.90;;;;;;2112239;28;20375;-65
2022/07/10 02:11:46;;;;;;;5.32;1.60;;;14.80;99.90;;;;;;2104733;28;20112;-65
2022/07/10 02:12:47;;;;;;;6.00;1.70;;;14.80;99.90;;;;;;2112898;28;20509;-65
2022/07/10 02:13:47;;;;;;;4.55;1.63;;;14.80;99.90;;;;;;2113069;28;20039;-65
2022/07/10 02:14:48;;;;;;;5.55;1.77;;;14.70;99.90;;;;;;2104017;28;20081;-65
2022/07/10 02:15:50;;;;;;;3.88;1.58;;;14.70;99.90;;;;;;2103725;28;20085;-66
2022/07/10 02:16:51;;;;;;;5.70;1.48;;;14.70;99.90;;;;;;2103581;28;20119;-65
2022/07/10 02:17:51;;;;;;;3.38;1.38;;;14.70;99.90;;;;;;2103812;28;20122;-65
2022/07/10 02:18:52;;;;;;;4.28;1.48;;;14.70;99.90;;;;;;2113092;28;20036;-65
2022/07/10 02:19:52;;;;;;;7.85;1.70;;;14.70;99.90;;;;;;2113655;28;20039;-65
2022/07/10 02:20:53;;;;;;;5.07;1.60;;;14.70;99.90;;;;;;2113621;28;20041;-66
2022/07/10 02:21:54;;;;;;;3.83;1.50;;;14.70;99.90;;;;;;2113596;28;20034;-65
2022/07/10 02:22:54;;;;;;;3.20;1.50;;;14.70;99.90;;;;;;2112316;28;20194;-65
2022/07/10 02:23:55;;;;;;;5.72;1.50;;;14.70;99.90;;;;;;2103986;28;20044;-64
2022/07/10 02:24:56;;;;;;;5.60;1.58;;;14.70;99.90;;;;;;2112646;28;20024;-66
2022/07/10 02:25:56;;;;;;;4.90;1.63;;;14.70;99.90;;;;;;2113146;28;20459;-66
2022/07/10 02:26:57;;;;;;;5.68;1.60;;;14.70;99.90;;;;;;2113408;28;20092;-65
2022/07/10 02:27:58;;;;;;;4.28;1.42;;;14.70;99.90;;;;;;2113632;28;20035;-66
2022/07/10 02:28:58;;;;;;;5.50;1.50;;;14.70;99.90;;;;;;2112994;28;20016;-65
2022/07/10 02:29:59;;;;;;;5.72;1.80;;;14.60;99.90;;;;;;2113004;28;20028;-65
2022/07/10 02:31:00;;;;;;;2.20;1.30;;;14.60;99.90;;;;;;2115095;28;20296;-65
2022/07/10 02:32:00;;;;;;;4.00;1.55;;;14.60;99.90;;;;;;2113831;28;20027;-65
2022/07/10 02:33:02;;;;;;;7.40;1.70;;;14.60;99.90;;;;;;2113762;28;20039;-65
2022/07/10 02:34:02;;;;;;;3.75;1.42;;;14.60;99.90;;;;;;2114082;28;20032;-66
2022/07/10 02:35:03;;;;;;;3.30;1.50;;;14.60;99.90;;;;;;2114382;28;20038;-67
2022/07/10 02:36:05;;;;;;;5.78;1.75;;;14.60;99.90;;;;;;2114235;28;20034;-66
2022/07/10 02:37:05;;;;;;;6.13;1.48;;;14.60;99.90;;;;;;2113796;28;20418;-65
2022/07/10 02:38:06;;;;;;;4.97;1.67;;;14.60;99.90;;;;;;2105347;28;20123;-65
2022/07/10 02:39:08;;;;;;;5.47;1.70;;;14.60;99.90;;;;;;2113594;28;20024;-66
2022/07/10 02:40:08;;;;;;;4.22;1.67;;;14.60;99.90;;;;;;2113888;28;20028;-65
2022/07/10 02:41:09;;;;;;;4.18;1.63;;;14.50;99.90;;;;;;2114144;28;20031;-66
2022/07/10 02:42:10;;;;;;;4.53;1.40;;;14.50;99.90;;;;;;2104890;28;20028;-66
2022/07/10 02:43:10;;;;;;;3.35;1.45;;;14.60;99.90;;;;;;2088624;28;20503;-66
2022/07/10 02:44:11;;;;;;;4.13;1.50;;;14.60;99.90;;;;;;2096554;28;20415;-65
2022/07/10 02:45:12;;;;;;;5.28;1.60;;;14.60;99.90;;;;;;2113252;28;20035;-66
2022/07/10 02:46:12;;;;;;;7.07;1.58;;;14.60;99.90;;;;;;2113934;28;20027;-66
2022/07/10 02:47:13;;;;;;;6.22;1.73;;;14.60;99.90;;;;;;2113929;28;20029;-66
2022/07/10 02:48:18;;;;;;;5.90;1.50;;;14.50;99.90;;;;;;2113784;28;20020;-65
2022/07/10 02:49:18;;;;;;;5.43;1.55;;;14.50;99.90;;;;;;2114076;28;20072;-66
2022/07/10 02:50:19;;;;;;;4.55;1.38;;;14.50;99.90;;;;;;2112954;28;20035;-65
2022/07/10 02:51:20;;;;;;;4.07;1.48;;;14.50;99.90;;;;;;2104788;28;20028;-66
2022/07/10 02:52:20;;;;;;;5.97;1.63;;;14.50;99.90;;;;;;2116442;28;20042;-65
2022/07/10 02:53:21;;;;;;;5.18;1.40;;;14.50;99.90;;;;;;2114130;28;20031;-67
2022/07/10 02:54:21;;;;;;;3.90;1.33;;;14.50;99.90;;;;;;2113921;28;20023;-65
2022/07/10 02:55:22;;;;;;;4.60;1.70;;;14.50;99.90;;;;;;2113195;28;20058;-65
2022/07/10 02:56:23;;;;;;;4.70;1.58;;;14.40;99.90;;;;;;2104884;28;20024;-67
2022/07/10 02:57:24;;;;;;;6.22;1.58;;;14.50;99.90;;;;;;2104816;28;20118;-66
2022/07/10 02:58:25;;;;;;;6.10;1.50;;;14.50;99.90;;;;;;2113160;28;20039;-67
2022/07/10 02:59:26;;;;;;;5.20;1.50;;;14.50;99.90;;;;;;2113704;28;20031;-65
2022/07/10 03:00:27;;;;;;;3.45;1.45;;;14.40;99.90;;;;;;2113596;28;20020;-67
2022/07/10 03:01:28;;;;;;;5.68;1.60;;;14.40;99.90;;;;;;2113892;28;20130;-66
2022/07/10 03:02:28;;;;;;;6.72;1.50;;;14.40;99.90;;;;;;2113774;27;20012;-68
2022/07/10 03:03:29;;;;;;;6.75;1.60;;;14.40;99.90;;;;;;2113949;28;20024;-66
2022/07/10 03:04:30;;;;;;;5.90;1.52;;;14.40;99.90;;;;;;2113920;27;20020;-67
2022/07/10 03:05:30;;;;;;;3.75;1.63;;;14.40;99.90;;;;;;2113750;28;20051;-66
2022/07/10 03:06:31;;;;;;;6.43;1.65;;;14.40;99.90;;;;;;2112988;28;20072;-66
2022/07/10 03:07:32;;;;;;;5.10;1.70;;;14.40;99.90;;;;;;2113081;28;20050;-67
2022/07/10 03:08:33;;;;;;;5.38;1.67;;;14.40;99.90;;;;;;2113027;28;20069;-66
2022/07/10 03:09:34;;;;;;;5.03;1.50;;;14.40;99.90;;;;;;2112911;28;20045;-67
2022/07/10 03:10:35;;;;;;;5.68;1.65;;;14.40;99.90;;;;;;2113198;28;20038;-67
2022/07/10 03:11:36;;;;;;;4.70;1.45;;;14.40;99.90;;;;;;2113919;28;20190;-67
2022/07/10 03:12:37;;;;;;;3.67;1.40;;;14.40;99.90;;;;;;2113769;28;20053;-67
2022/07/10 03:13:37;;;;;;;3.85;1.50;;;14.40;99.90;;;;;;2113789;28;20097;-67
2022/07/10 03:14:38;;;;;;;6.97;1.70;;;14.40;99.90;;;;;;2113841;28;20034;-66
2022/07/10 03:15:39;;;;;;;5.97;1.80;;;14.40;99.90;;;;;;2113811;28;20485;-67
2022/07/10 03:16:39;;;;;;;5.72;1.50;;;14.40;99.90;;;;;;2113789;28;20489;-65
2022/07/10 03:17:40;;;;;;;4.95;1.73;;;14.40;99.90;;;;;;2113555;28;20053;-67
2022/07/10 03:18:41;;;;;;;7.40;1.77;;;14.40;99.90;;;;;;2113646;28;20115;-66
2022/07/10 03:19:41;;;;;;;3.47;1.52;;;14.40;99.90;;;;;;2113413;28;20151;-67
2022/07/10 03:20:42;;;;;;;5.07;1.52;;;14.40;99.90;;;;;;2112989;28;20032;-67
2022/07/10 03:21:44;;;;;;;5.00;1.70;;;14.40;99.90;;;;;;2113007;28;20058;-67
2022/07/10 03:22:44;;;;;;;3.40;1.60;;;14.40;99.90;;;;;;2113036;28;20103;-66
2022/07/10 03:23:45;;;;;;;5.75;1.80;;;14.40;99.90;;;;;;2113779;28;20055;-67
2022/07/10 03:24:46;;;;;;;4.75;1.70;;;14.40;99.90;;;;;;2113641;28;20442;-66
2022/07/10 03:25:47;;;;;;;5.20;1.70;;;14.40;99.90;;;;;;2113591;28;20035;-66
2022/07/10 03:26:51;;;;;;;6.20;1.55;;;14.40;99.90;;;;;;2112626;28;20028;-67
2022/07/10 03:27:52;;;;;;;5.95;1.80;;;14.30;99.90;;;;;;2113441;28;20410;-67
2022/07/10 03:28:52;;;;;;;6.35;1.80;;;14.30;99.90;;;;;;2114198;28;20099;-67
2022/07/10 03:29:53;;;;;;;6.35;1.67;;;14.30;99.90;;;;;;2114917;28;20038;-66
2022/07/10 03:30:54;;;;;;;7.68;2.17;;;14.30;99.90;;;;;;2115435;27;20024;-66
2022/07/10 03:31:54;;;;;;;6.20;1.90;;;14.30;99.90;;;;;;2115217;28;20420;-66
2022/07/10 03:32:55;;;;;;;7.13;1.70;;;14.30;99.90;;;;;;2114614;28;20401;-65
2022/07/10 03:33:55;;;;;;;6.22;1.80;;;14.30;99.90;;;;;;2114777;28;20070;-65
2022/07/10 03:34:56;;;;;;;5.00;1.50;;;14.30;99.90;;;;;;2114573;28;20031;-65
2022/07/10 03:35:57;;;;;;;6.72;1.92;;;14.30;99.90;;;;;;2114494;28;20054;-65
2022/07/10 03:36:57;;;;;;;5.97;1.80;;;14.30;99.90;;;;;;2115255;28;20027;-66
2022/07/10 03:37:58;;;;;;;5.35;1.60;;;14.30;99.90;;;;;;2118414;28;20027;-66
2022/07/10 03:38:58;;;;;;;3.47;1.30;;;14.30;99.90;;;;;;2119031;28;20042;-66
2022/07/10 03:39:59;;;;;;;6.28;1.83;;;14.40;99.90;;;;;;2117916;28;20032;-65
2022/07/10 03:41:00;;;;;;;6.07;1.60;;;14.30;99.90;;;;;;2115907;28;20042;-65
2022/07/10 03:42:00;;;;;;;5.30;1.58;;;14.40;99.90;;;;;;2114056;28;20028;-65
2022/07/10 03:43:01;;;;;;;9.15;1.90;;;14.30;99.90;;;;;;2107435;28;20028;-66
2022/07/10 03:44:02;;;;;;;6.40;1.60;;;14.30;99.90;;;;;;2113239;28;20046;-65
2022/07/10 03:45:03;;;;;;;5.10;1.52;;;14.30;99.90;;;;;;2113588;28;20032;-65
2022/07/10 03:46:04;;;;;;;5.90;1.73;;;14.20;99.90;;;;;;2113499;28;20490;-65
2022/07/10 03:47:04;;;;;;;9.38;1.88;;;14.20;99.90;;;;;;2113605;28;20027;-66
2022/07/10 03:48:05;;;;;;;6.50;1.70;;;14.20;99.90;;;;;;2113407;28;20059;-65
2022/07/10 03:49:06;;;;;;;2.92;1.50;;;14.20;99.90;;;;;;2113262;28;20110;-66
2022/07/10 03:50:07;;;;;;;4.10;1.65;;;14.20;99.90;;;;;;2113276;28;20080;-65
2022/07/10 03:51:07;;;;;;;6.03;1.67;;;14.20;99.90;;;;;;2112905;28;20453;-65
2022/07/10 03:52:08;;;;;;;4.30;1.63;;;14.20;99.90;;;;;;2113010;28;20069;-64
2022/07/10 03:53:09;;;;;;;5.30;1.85;;;14.20;99.90;;;;;;2113658;28;20031;-65
2022/07/10 03:54:10;;;;;;;4.85;1.50;;;14.20;99.90;;;;;;2113820;28;20546;-65
2022/07/10 03:55:10;;;;;;;4.45;1.50;;;14.20;99.90;;;;;;2113502;28;20024;-66
2022/07/10 03:57:53;;;;;;;3.10;1.50;;;14.20;99.90;;;;;;2113677;28;20265;-66
2022/07/10 03:58:51;;;;;;;4.85;1.50;;;14.30;99.90;;;;;;2112412;28;20104;-66
2022/07/10 03:59:51;;;;;;;4.40;1.70;;;14.30;99.90;;;;;;2112344;28;20581;-65
2022/07/10 04:00:52;;;;;;;6.20;1.60;;;14.30;99.90;;;;;;2112403;28;20051;-65
2022/07/10 04:01:53;;;;;;;5.45;1.70;;;14.30;99.90;;;;;;2104539;28;20020;-66
2022/07/10 04:02:58;;;;;;;6.80;1.83;;;14.30;99.90;;;;;;2113102;28;20031;-66
2022/07/10 04:03:59;;;;;;;3.80;1.63;;;14.20;99.90;;;;;;2113460;28;20020;-66
2022/07/10 04:05:00;;;;;;;5.50;1.65;;;14.20;99.90;;;;;;2113489;28;20039;-66
2022/07/10 04:06:00;;;;;;;5.32;1.58;;;14.20;99.90;;;;;;2104217;28;20065;-66
2022/07/10 04:07:01;;;;;;;5.45;1.73;;;14.20;99.90;;;;;;2104156;28;20024;-66
2022/07/10 04:08:03;;;;;;;6.72;1.65;;;14.20;99.90;;;;;;2112257;28;20023;-67
2022/07/10 04:09:05;;;;;;;4.32;1.45;;;14.20;99.90;;;;;;2104228;28;20033;-65
2022/07/10 04:10:06;;;;;;;4.47;1.67;;;14.30;99.90;;;;;;2112349;28;20020;-65
2022/07/10 04:11:07;;;;;;;3.20;1.40;;;14.30;99.90;;;;;;2112766;28;20233;-66
2022/07/10 04:12:08;;;;;;;4.93;1.60;;;14.30;99.90;;;;;;2104333;28;20131;-65
2022/07/10 04:13:08;;;;;;;6.00;1.80;;;14.30;99.90;;;;;;2112773;28;20115;-65
2022/07/10 04:14:12;;;;;;;5.30;1.60;;;14.30;99.90;;;;;;2113489;28;20027;-65
2022/07/10 04:15:13;;;;;;;6.55;1.85;;;14.30;99.90;;;;;;2104100;28;20036;-66
2022/07/10 04:16:14;;;;;;;5.10;1.77;;;14.30;99.90;;;;;;2103880;28;20025;-65
2022/07/10 04:17:14;;;;;;;2.90;1.35;;;14.30;99.90;;;;;;2112625;28;20051;-66
2022/07/10 04:18:15;;;;;;;6.78;1.50;;;14.30;99.90;;;;;;2113172;28;20035;-65
2022/07/10 04:19:15;;;;;;;4.07;1.50;;;14.30;99.90;;;;;;2113298;28;20501;-64
2022/07/10 04:20:18;;;;;;;6.00;1.60;;;14.30;99.90;;;;;;2113086;28;20340;-65
2022/07/10 04:21:18;;;;;;;3.58;1.45;;;14.40;99.90;;;;;;2113266;28;20020;-64
2022/07/10 04:22:19;;;;;;;4.13;1.60;;;14.40;99.90;;;;;;2113254;27;20099;-64
2022/07/10 04:23:20;;;;;;;6.45;1.60;;;14.50;99.90;;;;;;2112484;28;20026;-64
2022/07/10 04:24:20;;;;;;;6.82;1.60;;;14.50;99.90;;;;;;2112484;28;20113;-64
2022/07/10 04:25:21;;;;;;;4.43;1.40;;;14.50;99.90;;;;;;2113236;28;20030;-64
2022/07/10 04:26:22;;;;;;;4.93;1.52;;;14.40;99.90;;;;;;2113313;28;20453;-64
2022/07/10 04:27:22;;;;;;;6.93;1.50;;;14.60;99.90;;;;;;2112568;28;20035;-64
2022/07/10 04:28:23;;;;;;;5.53;1.55;;;14.60;99.90;;;;;;2112514;28;20024;-65
2022/07/10 04:29:24;;;;;;;6.45;1.30;;;14.60;99.90;;;;;;2112484;28;20497;-66
2022/07/10 04:30:24;;;;;;;6.75;1.77;;;14.60;99.90;;;;;;2103882;28;20197;-66
2022/07/10 04:31:25;;;;;;;4.70;1.58;;;14.60;99.90;;;;;;2112480;28;20588;-66
2022/07/10 04:32:27;;;;;;;6.88;1.63;;;14.60;99.90;;;;;;2112361;28;20465;-65
2022/07/10 04:33:28;;;;;;;3.92;1.30;;;14.60;99.90;;;;;;2104013;28;20032;-64
2022/07/10 04:34:28;;;;;;;5.93;1.40;;;14.60;99.90;;;;;;2104175;28;20421;-64
2022/07/10 04:35:29;;;;;;;5.80;1.52;;;14.60;99.90;;;;;;2112355;28;20028;-66
2022/07/10 04:36:30;;;;;;;6.78;1.60;;;14.60;99.90;;;;;;2112466;28;20031;-66
2022/07/10 04:37:31;;;;;;;3.58;1.42;;;14.60;99.90;;;;;;2112264;28;20084;-65
2022/07/10 04:38:31;;;;;;;6.18;1.48;;;14.70;99.90;;;;;;2112227;28;20053;-66
2022/07/10 04:39:32;;;;;;;3.95;1.40;;;14.70;99.90;;;;;;2112417;28;20046;-67
2022/07/10 04:40:33;;;;;;;7.05;2.15;;;14.80;99.90;;;;;;2112461;28;20069;-66
2022/07/10 04:41:34;;;;;;;4.82;1.40;;;14.80;99.90;;;;;;2113090;28;20534;-66
2022/07/10 04:42:36;;;;;;;3.72;1.50;;;14.80;99.90;;;;;;2112955;28;20023;-66
2022/07/10 04:43:36;;;;;;;6.35;1.52;;;14.90;99.90;;;;;;2113037;28;20084;-66
2022/07/10 04:44:37;;;;;;;6.30;1.63;;;15.00;99.90;;;;;;2112999;28;20587;-67
2022/07/10 04:45:38;;;;;;;3.00;1.20;;;15.00;99.90;;;;;;2112887;28;20500;-66
2022/07/10 04:46:38;;;;;;;6.40;1.50;;;15.10;99.90;;;;;;2113090;27;20032;-65
2022/07/10 04:47:39;;;;;;;7.57;1.60;;;15.00;99.90;;;;;;2112283;28;20081;-66
2022/07/10 04:48:39;;;;;;;5.53;1.50;;;15.00;99.90;;;;;;2112286;28;20035;-67
2022/07/10 04:49:40;;;;;;;5.65;1.50;;;14.90;99.90;;;;;;2112240;28;20562;-67
2022/07/10 04:50:41;;;;;;;5.00;1.25;;;14.90;99.90;;;;;;2103933;28;20054;-66
2022/07/10 04:51:41;;;;;;;3.97;1.50;;;15.00;99.90;;;;;;2112260;28;20035;-67
2022/07/10 04:52:42;;;;;;;3.47;1.50;;;15.00;99.90;;;;;;2113043;28;20036;-67
2022/07/10 04:53:43;;;;;;;4.97;1.75;;;15.10;99.90;;;;;;2112559;28;20028;-66
2022/07/10 04:54:43;;;;;;;7.43;1.60;;;15.10;99.90;;;;;;2112698;28;20505;-66
2022/07/10 04:55:45;;;;;;;4.10;1.52;;;15.10;99.90;;;;;;2113143;28;20028;-66
2022/07/10 04:56:46;;;;;;;6.40;1.40;;;15.10;99.90;;;;;;2113123;28;20402;-66
2022/07/10 04:57:46;;;;;;;8.63;2.17;;;15.00;99.90;;;;;;2112911;28;20063;-65
2022/07/10 04:58:48;;;;;;;6.40;1.40;;;14.90;99.90;;;;;;2112057;28;20076;-66
2022/07/10 04:59:49;;;;;;;4.57;1.50;;;14.90;99.90;;;;;;2112014;28;20032;-65
2022/07/10 05:00:49;;;;;;;4.97;1.40;;;14.90;99.90;;;;;;2112178;28;20028;-66
2022/07/10 05:01:50;;;;;;;5.68;1.73;;;15.00;99.90;;;;;;2112374;28;20110;-66
2022/07/10 05:02:50;;;;;;;4.22;1.30;;;15.10;99.90;;;;;;2112977;28;20377;-66
2022/07/10 05:03:51;;;;;;;8.52;1.35;;;15.10;99.90;;;;;;2112966;28;20118;-66
2022/07/10 05:04:52;;;;;;;6.85;1.55;;;15.20;99.90;;;;;;2114030;28;20088;-67
2022/07/10 05:05:52;;;;;;;3.63;1.48;;;15.10;99.90;;;;;;2115407;28;20046;-67
2022/07/10 05:06:53;;;;;;;5.50;1.38;;;15.10;99.90;;;;;;2113696;28;20027;-65
2022/07/10 05:07:54;;;;;;;3.20;1.30;;;15.10;99.90;;;;;;2112773;28;20041;-67
2022/07/10 05:08:55;;;;;;;4.05;1.40;;;15.20;99.90;;;;;;2113222;28;20106;-67
2022/07/10 05:09:56;;;;;;;3.00;1.23;;;15.20;99.90;;;;;;2111973;28;20176;-66
2022/07/10 05:10:56;;;;;;;6.28;1.60;;;15.30;99.90;;;;;;2112232;28;20590;-67
2022/07/10 05:11:57;;;;;;;5.57;1.70;;;15.20;99.90;;;;;;2113073;28;20068;-67
2022/07/10 05:12:58;;;;;;;4.25;1.42;;;15.20;99.90;;;;;;2113068;28;20059;-65
2022/07/10 05:13:58;;;;;;;5.65;1.45;;;15.20;99.90;;;;;;2112703;28;20040;-66
2022/07/10 05:15:00;;;;;;;4.55;1.70;;;15.20;99.90;;;;;;2112061;28;20601;-65
2022/07/10 05:16:00;;;;;;;7.53;1.58;;;15.10;99.90;;;;;;2112256;28;20560;-66
2022/07/10 05:17:01;;;;;;;3.92;1.20;;;15.10;99.90;;;;;;2112241;28;20035;-67
2022/07/10 05:18:02;;;;;;;7.00;1.70;;;15.00;99.90;;;;;;2112262;28;20032;-67
2022/07/10 05:19:02;;;;;;;6.15;1.65;;;14.90;99.90;;;;;;2112792;28;20103;-68
2022/07/10 05:20:04;;;;;;;5.78;1.50;;;14.90;99.90;;;;;;2112455;28;20031;-66